Aeroporto :
LOGIN :

Iscrizione | Disclaimer

   EN    FR    IT 

 










Sommario :    VFR   VFR Marginale   IFR   IFR Intensivo   IFR Molto Intensivo
Visibilità : 
Base nubi : 
>= 8 km
>= 3000ft
5 / 8 km
1000 / 3000 ft
1500m / 5 km
500 / 1000 ft
800 / 1500m
200 / 500 ft
< 800m
< 200 ft
Simboli :   Temporali  Nebbia  Neve Forte  Precipitazioni Forti  Vento > 20 kt
SIGMETs :   Varie  Temporali  Ghiacco  Turbolenza  Onda orograficha  Ceneri Vulcaniche






- Altitudine del aeroporto : 2835 ft
- Codice IATA : ISE


LTFC - Suleyman Demirel

ULTIMO METAR :
  • 271420Z 15016KT 9999 SCT035 21/08 Q1012 RMK RWY23 16015KT

METARs OBSOLETI :
  • 271350Z 16015KT 9999 BKN035 21/06 Q1012 RMK RWY23 15014KT
  • 271320Z 17015KT 140V200 9999 BKN035 22/06 Q1012 RMK RWY23 17014KT 140V200
  • 271250Z 17015KT 9999 BKN035 22/06 Q1012 RMK RWY23 16012KT 130V190
  • 271220Z 18015KT 9999 BKN035 22/05 Q1012 RMK RWY23 18014KT 140V220
  • 271150Z 18015KT 9999 BKN035 21/05 Q1013 RMK RWY23 17016KT

TAF TAF LTFC
Valido dal 27 a 12 ore il 28 a 12 ore UTC


271040Z 2712/2812 18012KT 9999 -SHRA BKN035
BECMG 2712/2715 VRB02KT FEW020CB BKN030
PROB40
TEMPO 2715/2719 -TSRA
BECMG 2719/2723 SCT035



MetMap, La meteo Aeronautica in un colpo d'occhio ! - Copyright ORBIFLY Dicembre 2007 - Disclaimer

ORBIFLY MET'MAP TEAM :

Programmazione e sviluppo : Alexandra Zaïnal
Concezione : Baudouin d'Aumeries
Aiuto per la programmazione : Marc-Olivier Méhu
Supporto tecnico e logistico : Manuel Goepfert
Aiuto per la traduzione : Arnaldo La Scala

Contatto : metmap@orbifly.com




FONTI E CREDITI :

   NOAA